createdAt,value
2018-01-28T00:00:44.674Z,40.80
2018-01-28T00:03:14.109Z,45.37
2018-01-28T00:05:43.610Z,44.17
2018-01-28T00:08:13.097Z,51.13
2018-01-28T00:10:42.567Z,36.60
2018-01-28T00:13:12.123Z,43.78
2018-01-28T00:15:41.654Z,43.20
2018-01-28T00:18:10.907Z,37.47
2018-01-28T00:20:40.629Z,41.85
2018-01-28T00:23:10.338Z,39.90
2018-01-28T00:25:39.835Z,40.90
2018-01-28T00:28:09.589Z,49.42
2018-01-28T00:30:39.516Z,51.08
2018-01-28T00:33:08.977Z,43.50
2018-01-28T00:35:38.422Z,41.20
2018-01-28T00:38:07.882Z,39.97
2018-01-28T00:40:37.330Z,41.30
2018-01-28T00:43:06.781Z,41.47
2018-01-28T00:45:36.238Z,40.83
2018-01-28T00:48:05.689Z,40.60
2018-01-28T00:50:35.130Z,43.90
2018-01-28T00:53:04.609Z,41.30
2018-01-28T00:55:34.047Z,36.73
2018-01-28T00:58:03.522Z,30.77
2018-01-28T01:00:32.965Z,30.67
2018-01-28T01:03:02.405Z,32.27
2018-01-28T01:05:31.845Z,30.30
2018-01-28T01:08:01.301Z,32.43
2018-01-28T01:10:30.756Z,31.20
2018-01-28T01:12:59.917Z,31.23
2018-01-28T01:15:29.385Z,28.27
2018-01-28T01:17:58.813Z,33.60
2018-01-28T01:20:27.953Z,26.10
2018-01-28T01:22:57.423Z,28.67
2018-01-28T01:25:26.869Z,27.47
2018-01-28T01:27:56.317Z,30.17
2018-01-28T01:30:25.766Z,24.43
2018-01-28T01:32:55.229Z,28.83
2018-01-28T01:35:24.680Z,23.40
2018-01-28T01:37:54.110Z,25.73
2018-01-28T01:40:23.553Z,24.27
2018-01-28T01:42:53.037Z,25.60
2018-01-28T01:45:22.474Z,24.23
2018-01-28T01:47:51.931Z,22.20
2018-01-28T01:50:21.369Z,24.90
2018-01-28T01:52:50.814Z,25.70
2018-01-28T01:55:20.245Z,23.83
2018-01-28T01:57:49.733Z,26.33
2018-01-28T02:00:19.165Z,26.80
2018-01-28T02:02:48.703Z,27.30
2018-01-28T02:05:18.137Z,26.13
2018-01-28T02:07:47.605Z,26.77
2018-01-28T02:10:17.337Z,28.33
2018-01-28T02:12:46.805Z,27.80
2018-01-28T02:15:16.533Z,27.75
2018-01-28T02:17:45.654Z,25.23
2018-01-28T02:20:15.332Z,27.43
2018-01-28T02:22:45.058Z,24.08
2018-01-28T02:25:14.850Z,29.37
2018-01-28T02:27:44.589Z,29.67
2018-01-28T02:30:13.776Z,26.63
2018-01-28T02:32:43.537Z,26.33
2018-01-28T02:35:13.249Z,26.92
2018-01-28T02:37:42.693Z,25.43
2018-01-28T02:40:12.435Z,25.12
2018-01-28T02:42:41.617Z,24.37
2018-01-28T02:45:11.061Z,23.60
2018-01-28T02:47:40.541Z,22.53
2018-01-28T02:50:09.982Z,23.20
2018-01-28T02:52:39.425Z,23.20
2018-01-28T02:55:08.881Z,21.23
2018-01-28T02:57:38.317Z,26.97
2018-01-28T03:00:07.422Z,23.00
2018-01-28T03:02:36.888Z,24.47
2018-01-28T03:05:06.317Z,22.20
2018-01-28T03:07:35.765Z,21.47
2018-01-28T03:10:04.897Z,21.23
2018-01-28T03:12:34.421Z,20.30
2018-01-28T03:15:03.953Z,20.73
2018-01-28T03:17:33.389Z,23.03
2018-01-28T03:20:02.841Z,17.77
2018-01-28T03:22:32.369Z,19.17
2018-01-28T03:25:01.578Z,21.60
2018-01-28T03:27:31.019Z,22.93
2018-01-28T03:30:00.489Z,19.67
2018-01-28T03:32:29.749Z,19.37
2018-01-28T03:34:58.989Z,21.40
2018-01-28T03:37:28.271Z,19.43
2018-01-28T03:39:57.861Z,17.23
2018-01-28T03:42:27.429Z,20.10
2018-01-28T03:44:56.900Z,15.53
2018-01-28T03:47:26.329Z,15.30
2018-01-28T03:49:55.782Z,16.60
2018-01-28T03:52:25.233Z,19.50
2018-01-28T03:54:54.683Z,16.93
2018-01-28T03:57:24.114Z,16.00
2018-01-28T03:59:53.552Z,14.93
2018-01-28T04:02:23.037Z,15.23
2018-01-28T04:04:52.542Z,16.97
2018-01-28T04:07:21.980Z,15.03
2018-01-28T04:09:51.424Z,17.43
2018-01-28T04:12:20.878Z,16.00
2018-01-28T04:14:50.337Z,16.33
2018-01-28T04:17:19.798Z,17.00
2018-01-28T04:19:49.249Z,15.53
2018-01-28T04:22:18.684Z,14.30
2018-01-28T04:24:48.149Z,14.27
2018-01-28T04:27:17.514Z,14.50
2018-01-28T04:29:46.957Z,14.90
2018-01-28T04:32:16.420Z,14.70
2018-01-28T04:34:45.853Z,18.23
2018-01-28T04:37:15.338Z,15.80
2018-01-28T04:39:44.772Z,14.60
2018-01-28T04:42:14.217Z,16.67
2018-01-28T04:44:43.727Z,15.27
2018-01-28T04:47:13.193Z,15.73
2018-01-28T04:49:42.322Z,14.30
2018-01-28T04:52:11.753Z,17.10
2018-01-28T04:54:41.322Z,14.90
2018-01-28T04:57:10.566Z,15.00
2018-01-28T04:59:39.843Z,14.60
2018-01-28T05:02:20.820Z,15.23
2018-01-28T05:04:50.089Z,14.30
2018-01-28T05:07:19.529Z,16.87
2018-01-28T05:09:48.786Z,13.23
2018-01-28T05:12:18.058Z,14.70
2018-01-28T05:14:47.509Z,12.87
2018-01-28T05:17:16.962Z,13.17
2018-01-28T05:19:46.235Z,14.40
2018-01-28T05:22:15.489Z,14.07
2018-01-28T05:24:44.946Z,12.13
2018-01-28T05:27:14.213Z,13.87
2018-01-28T05:29:43.670Z,12.73
2018-01-28T05:32:13.156Z,12.80
2018-01-28T05:34:42.604Z,12.60
2018-01-28T05:37:12.073Z,14.17
2018-01-28T05:39:41.530Z,12.30
2018-01-28T05:42:10.992Z,13.40
2018-01-28T05:44:40.422Z,14.13
2018-01-28T05:47:10.013Z,11.53
2018-01-28T05:49:39.577Z,12.20
2018-01-28T05:52:09.034Z,13.53
2018-01-28T05:54:38.713Z,12.93
2018-01-28T05:57:07.974Z,12.00
2018-01-28T05:59:37.519Z,11.37
2018-01-28T06:02:06.786Z,13.97
2018-01-28T06:04:36.222Z,12.80
2018-01-28T06:07:05.673Z,12.67
2018-01-28T06:09:35.102Z,12.13
2018-01-28T06:12:04.549Z,12.10
2018-01-28T06:14:34.001Z,12.53
2018-01-28T06:17:03.484Z,11.10
2018-01-28T06:19:32.981Z,11.20
2018-01-28T06:22:02.429Z,12.70
2018-01-28T06:24:31.861Z,11.80
2018-01-28T06:27:01.117Z,10.73
2018-01-28T06:29:30.369Z,10.57
2018-01-28T06:31:59.625Z,11.50
2018-01-28T06:34:29.873Z,12.00
2018-01-28T06:36:59.314Z,11.27
2018-01-28T06:39:28.829Z,11.43
2018-01-28T06:41:58.273Z,9.87
2018-01-28T06:44:27.711Z,10.13
2018-01-28T06:46:57.137Z,10.03
2018-01-28T06:49:26.589Z,11.80
2018-01-28T06:51:56.021Z,9.30
2018-01-28T06:54:25.469Z,10.97
2018-01-28T06:56:54.971Z,9.93
2018-01-28T06:59:24.414Z,8.83
2018-01-28T07:01:53.841Z,10.50
2018-01-28T07:04:23.291Z,9.97
2018-01-28T07:06:52.747Z,11.80
2018-01-28T07:09:22.178Z,8.73
2018-01-28T07:11:51.424Z,8.97
2018-01-28T07:14:20.982Z,9.83
2018-01-28T07:16:50.437Z,11.00
2018-01-28T07:19:19.869Z,8.57
2018-01-28T07:21:49.311Z,9.70
2018-01-28T07:24:18.765Z,8.73
2018-01-28T07:26:48.229Z,8.13
2018-01-28T07:29:17.678Z,9.13
2018-01-28T07:31:47.153Z,9.03
2018-01-28T07:34:16.620Z,9.70
2018-01-28T07:36:46.057Z,8.60
2018-01-28T07:39:15.517Z,8.47
2018-01-28T07:41:44.934Z,11.43
2018-01-28T07:44:14.385Z,9.97
2018-01-28T07:46:43.810Z,8.30
2018-01-28T07:49:13.265Z,8.77
2018-01-28T07:51:42.873Z,10.43
2018-01-28T07:54:12.161Z,11.20
2018-01-28T07:56:41.603Z,12.17
2018-01-28T07:59:11.041Z,9.83
2018-01-28T08:01:40.306Z,9.60
2018-01-28T08:04:09.542Z,8.17
2018-01-28T08:06:38.814Z,8.67
2018-01-28T08:09:08.069Z,8.23
2018-01-28T08:11:53.273Z,8.13
2018-01-28T08:14:23.375Z,7.77
2018-01-28T08:16:52.642Z,6.60
2018-01-28T08:19:21.885Z,8.03
2018-01-28T08:21:51.213Z,7.00
2018-01-28T08:24:20.597Z,6.63
2018-01-28T08:26:55.702Z,6.80
2018-01-28T08:29:27.805Z,6.80
2018-01-28T08:31:57.265Z,9.07
2018-01-28T08:34:26.698Z,7.37
2018-01-28T08:36:56.121Z,7.07
2018-01-28T08:39:25.482Z,6.90
2018-01-28T08:41:54.925Z,7.97
2018-01-28T08:44:24.386Z,7.63
2018-01-28T08:46:53.634Z,7.00
2018-01-28T08:49:23.094Z,5.23
2018-01-28T08:51:52.196Z,6.07
2018-01-28T08:54:21.661Z,5.73
2018-01-28T08:56:51.080Z,5.20
2018-01-28T08:59:20.540Z,4.40
2018-01-28T09:01:50.062Z,4.43
2018-01-28T09:04:19.596Z,3.80
2018-01-28T09:06:49.021Z,4.47
2018-01-28T09:09:18.457Z,3.57
2018-01-28T09:11:47.909Z,4.00
2018-01-28T09:14:17.484Z,3.40
2018-01-28T09:16:46.950Z,3.97
2018-01-28T09:19:16.602Z,4.10
2018-01-28T09:21:46.066Z,4.50
2018-01-28T09:24:15.505Z,3.50
2018-01-28T09:26:44.944Z,3.40
2018-01-28T09:29:14.419Z,3.00
2018-01-28T09:31:44.104Z,3.33
2018-01-28T09:34:13.685Z,2.90
2018-01-28T09:36:43.125Z,3.90
2018-01-28T09:39:12.578Z,4.00
2018-01-28T09:41:41.994Z,2.70
2018-01-28T09:44:11.459Z,2.70
2018-01-28T09:46:40.913Z,3.10
2018-01-28T09:49:10.351Z,3.30
2018-01-28T09:51:39.795Z,3.30
2018-01-28T09:54:09.273Z,2.60
2018-01-28T09:56:38.729Z,2.93
2018-01-28T09:59:08.209Z,2.53
2018-01-28T10:01:37.662Z,2.80
2018-01-28T10:04:07.102Z,5.70
2018-01-28T10:06:36.538Z,2.03
2018-01-28T10:09:05.706Z,3.07
2018-01-28T10:11:35.155Z,2.10
2018-01-28T10:14:04.632Z,2.60
2018-01-28T10:16:34.224Z,2.70
2018-01-28T10:19:03.688Z,2.70
2018-01-28T10:21:33.135Z,3.10
2018-01-28T10:24:03.461Z,2.53
2018-01-28T10:26:32.932Z,3.57
2018-01-28T10:29:02.393Z,3.33
2018-01-28T10:31:32.101Z,2.83
2018-01-28T10:34:01.565Z,3.07
2018-01-28T10:36:31.022Z,3.27
2018-01-28T10:39:00.461Z,3.10
2018-01-28T10:41:30.018Z,2.77
2018-01-28T10:43:59.480Z,3.60
2018-01-28T10:46:28.763Z,4.40
2018-01-28T10:48:59.960Z,3.03
2018-01-28T10:51:29.518Z,2.73
2018-01-28T10:53:58.974Z,2.43
2018-01-28T10:56:28.503Z,2.57
2018-01-28T10:58:57.976Z,2.60
2018-01-28T11:01:27.441Z,2.70
2018-01-28T11:03:57.010Z,2.80
2018-01-28T11:06:26.440Z,2.17
2018-01-28T11:08:55.883Z,3.10
2018-01-28T11:11:25.317Z,6.20
2018-01-28T11:13:54.761Z,3.47
2018-01-28T11:16:24.026Z,2.80
2018-01-28T11:18:53.465Z,2.93
2018-01-28T11:21:22.734Z,3.43
2018-01-28T11:23:52.174Z,2.97
2018-01-28T11:26:21.718Z,2.80
2018-01-28T11:28:51.326Z,2.77
2018-01-28T11:31:20.835Z,3.53
2018-01-28T11:33:50.291Z,2.00
2018-01-28T11:36:19.767Z,2.23
2018-01-28T11:38:49.247Z,2.80
2018-01-28T11:41:18.672Z,2.10
2018-01-28T11:43:47.933Z,2.50
2018-01-28T11:46:17.378Z,2.43
2018-01-28T11:48:46.811Z,2.30
2018-01-28T11:51:16.258Z,2.50
2018-01-28T11:53:45.746Z,1.70
2018-01-28T11:56:15.181Z,2.40
2018-01-28T11:58:44.669Z,3.93
2018-01-28T12:01:14.106Z,5.07
2018-01-28T12:03:43.553Z,5.77
2018-01-28T12:06:13.003Z,2.30
2018-01-28T12:08:42.510Z,2.43
2018-01-28T12:11:11.994Z,3.20
2018-01-28T12:13:41.439Z,2.20
2018-01-28T12:16:10.904Z,1.80
2018-01-28T12:18:40.371Z,2.03
2018-01-28T12:21:09.816Z,2.43
2018-01-28T12:23:39.311Z,2.00
2018-01-28T12:26:08.763Z,2.50
2018-01-28T12:28:38.237Z,1.73
2018-01-28T12:31:07.567Z,1.77
2018-01-28T12:33:36.977Z,1.70
2018-01-28T12:36:06.428Z,2.30
2018-01-28T12:38:35.885Z,2.10
2018-01-28T12:41:05.330Z,2.50
2018-01-28T12:43:34.776Z,2.67
2018-01-28T12:46:04.252Z,2.33
2018-01-28T12:48:33.707Z,1.70
2018-01-28T12:51:03.157Z,2.23
2018-01-28T12:53:32.601Z,1.90
2018-01-28T12:56:02.049Z,1.90
2018-01-28T12:58:31.513Z,2.07
2018-01-28T13:01:01.205Z,1.80
2018-01-28T13:03:30.645Z,2.17
2018-01-28T13:06:00.099Z,2.03
2018-01-28T13:08:29.569Z,3.07
2018-01-28T13:10:59.013Z,2.27
2018-01-28T13:13:28.558Z,2.87
2018-01-28T13:15:57.992Z,2.00
2018-01-28T13:18:27.431Z,2.00
2018-01-28T13:20:56.897Z,1.70
2018-01-28T13:23:26.404Z,1.80
2018-01-28T13:25:55.865Z,1.77
2018-01-28T13:28:25.325Z,1.50
2018-01-28T13:30:54.773Z,1.67
2018-01-28T13:33:24.301Z,2.10
2018-01-28T13:35:53.822Z,1.80
2018-01-28T13:38:23.282Z,2.00
2018-01-28T13:40:52.745Z,2.00
2018-01-28T13:43:22.207Z,1.90
2018-01-28T13:45:51.661Z,1.70
2018-01-28T13:48:21.141Z,2.20
2018-01-28T13:50:50.577Z,1.70
2018-01-28T13:53:20.009Z,1.40
2018-01-28T13:55:49.273Z,1.80
2018-01-28T13:58:18.707Z,1.83
2018-01-28T14:00:48.150Z,2.23
2018-01-28T14:03:17.586Z,2.93
2018-01-28T14:05:47.030Z,3.43
2018-01-28T14:08:16.453Z,1.77
2018-01-28T14:10:45.918Z,2.20
2018-01-28T14:13:15.377Z,3.00
2018-01-28T14:15:44.863Z,2.50
2018-01-28T14:18:14.309Z,1.90
2018-01-28T14:20:43.751Z,2.03
2018-01-28T14:23:13.006Z,2.13
2018-01-28T14:25:42.429Z,2.40
2018-01-28T14:28:11.685Z,2.33
2018-01-28T14:30:40.935Z,2.37
2018-01-28T14:33:10.382Z,2.73
2018-01-28T14:35:39.825Z,2.07
2018-01-28T14:38:09.257Z,2.97
2018-01-28T14:40:38.694Z,1.80
2018-01-28T14:43:07.943Z,2.40
2018-01-28T14:45:37.427Z,2.20
2018-01-28T14:48:06.873Z,1.60
2018-01-28T14:50:36.005Z,1.60
2018-01-28T14:53:05.446Z,1.53
2018-01-28T14:55:34.984Z,1.57
2018-01-28T14:58:04.434Z,1.50
2018-01-28T15:00:33.938Z,1.50
2018-01-28T15:03:03.389Z,1.80
2018-01-28T15:05:32.833Z,1.63
2018-01-28T15:08:02.341Z,2.07
2018-01-28T15:10:31.766Z,1.23
2018-01-28T15:13:01.217Z,1.60
2018-01-28T15:15:30.638Z,1.40
2018-01-28T15:18:00.087Z,1.40
2018-01-28T15:20:29.562Z,1.00
2018-01-28T15:22:59.078Z,1.20
2018-01-28T15:25:28.537Z,1.20
2018-01-28T15:27:58.194Z,1.33
2018-01-28T15:30:31.171Z,0.90
2018-01-28T15:33:00.653Z,1.30
2018-01-28T15:35:30.105Z,1.33
2018-01-28T15:37:59.355Z,1.17
2018-01-28T15:40:28.814Z,1.23
2018-01-28T15:42:58.262Z,1.80
2018-01-28T15:45:27.701Z,1.50
2018-01-28T15:47:57.117Z,1.50
2018-01-28T15:50:26.379Z,1.50
2018-01-28T15:52:55.830Z,1.40
2018-01-28T15:55:25.278Z,1.53
2018-01-28T15:57:54.521Z,1.90
2018-01-28T16:00:23.953Z,2.30
2018-01-28T16:02:53.456Z,2.50
2018-01-28T16:05:22.697Z,3.87
2018-01-28T16:07:52.155Z,2.47
2018-01-28T16:10:21.599Z,2.83
2018-01-28T16:12:51.053Z,3.23
2018-01-28T16:15:20.537Z,2.97
2018-01-28T16:17:49.973Z,3.30
2018-01-28T16:20:19.425Z,3.10
2018-01-28T16:22:48.885Z,2.77
2018-01-28T16:25:18.329Z,2.57
2018-01-28T16:27:47.753Z,3.40
2018-01-28T16:30:17.221Z,2.80
2018-01-28T16:32:46.666Z,3.00
2018-01-28T16:35:16.121Z,3.13
2018-01-28T16:37:45.521Z,2.97
2018-01-28T16:40:14.954Z,3.10
2018-01-28T16:42:44.421Z,3.93
2018-01-28T16:45:13.738Z,2.90
2018-01-28T16:47:42.998Z,2.60
2018-01-28T16:50:12.443Z,2.63
2018-01-28T16:52:41.902Z,3.20
2018-01-28T16:55:11.346Z,3.00
2018-01-28T16:57:40.823Z,2.60
2018-01-28T17:00:10.270Z,3.10
2018-01-28T17:02:39.717Z,3.07
2018-01-28T17:05:09.154Z,3.27
2018-01-28T17:07:38.625Z,3.13
2018-01-28T17:10:08.210Z,3.00
2018-01-28T17:12:37.684Z,2.90
2018-01-28T17:15:07.140Z,3.20
2018-01-28T17:17:36.603Z,3.20
2018-01-28T17:20:06.134Z,4.23
2018-01-28T17:22:35.581Z,2.90
2018-01-28T17:25:04.853Z,2.97
2018-01-28T17:27:33.957Z,4.33
2018-01-28T17:30:03.199Z,4.90
2018-01-28T17:32:32.781Z,3.17
2018-01-28T17:35:02.049Z,2.67
2018-01-28T17:37:31.297Z,2.97
2018-01-28T17:40:00.567Z,2.57
2018-01-28T17:42:30.031Z,2.87
2018-01-28T17:44:59.471Z,2.67
2018-01-28T17:47:29.055Z,2.60
2018-01-28T17:49:58.523Z,2.60
2018-01-28T17:52:28.148Z,3.87
2018-01-28T17:54:57.598Z,3.03
2018-01-28T17:57:27.125Z,2.90
2018-01-28T17:59:56.577Z,3.37
2018-01-28T18:02:26.024Z,4.43
2018-01-28T18:04:55.478Z,2.60
2018-01-28T18:07:24.912Z,3.17
2018-01-28T18:09:54.370Z,3.33
2018-01-28T18:12:23.854Z,2.70
2018-01-28T18:14:53.301Z,2.90
2018-01-28T18:17:22.784Z,2.90
2018-01-28T18:19:52.453Z,3.63
2018-01-28T18:22:21.917Z,4.07
2018-01-28T18:24:51.349Z,4.07
2018-01-28T18:27:20.895Z,3.53
2018-01-28T18:29:50.008Z,3.80
2018-01-28T18:32:19.222Z,3.63
2018-01-28T18:34:48.886Z,5.30
2018-01-28T18:37:18.355Z,6.30
2018-01-28T18:39:47.807Z,4.40
2018-01-28T18:42:17.262Z,4.20
2018-01-28T18:44:46.701Z,7.43
2018-01-28T18:47:16.137Z,3.80
2018-01-28T18:49:45.606Z,3.70
2018-01-28T18:52:15.138Z,4.43
2018-01-28T18:54:44.589Z,4.00
2018-01-28T18:57:14.041Z,4.90
2018-01-28T18:59:43.637Z,4.63
2018-01-28T19:02:13.177Z,5.10
2018-01-28T19:04:42.646Z,4.80
2018-01-28T19:07:12.196Z,5.50
2018-01-28T19:09:41.653Z,4.80
2018-01-28T19:12:11.083Z,5.20
2018-01-28T19:14:40.607Z,5.10
2018-01-28T19:17:10.050Z,5.13
2018-01-28T19:19:39.541Z,5.40
2018-01-28T19:22:09.148Z,6.13
2018-01-28T19:24:38.713Z,7.60
2018-01-28T19:27:08.214Z,5.30
2018-01-28T19:29:37.703Z,7.30
2018-01-28T19:32:07.157Z,7.83
2018-01-28T19:34:36.674Z,9.30
2018-01-28T19:37:06.174Z,7.70
2018-01-28T19:39:35.716Z,5.70
2018-01-28T19:42:05.401Z,6.87
2018-01-28T19:44:34.883Z,5.50
2018-01-28T19:47:04.330Z,5.77
2018-01-28T19:49:33.840Z,6.50
2018-01-28T19:52:03.273Z,7.83
2018-01-28T19:54:32.775Z,6.50
2018-01-28T19:57:02.218Z,7.57
2018-01-28T19:59:31.711Z,9.73
2018-01-28T20:02:01.167Z,8.33
2018-01-28T20:04:30.609Z,8.10
2018-01-28T20:07:00.125Z,6.50
2018-01-28T20:09:29.609Z,7.17
2018-01-28T20:11:59.066Z,5.63
2018-01-28T20:14:28.495Z,6.13
2018-01-28T20:16:57.981Z,6.23
2018-01-28T20:19:27.534Z,6.43
2018-01-28T20:21:57.522Z,6.63
2018-01-28T20:24:27.071Z,5.40
2018-01-28T20:26:56.535Z,5.97
2018-01-28T20:29:25.789Z,5.57
2018-01-28T20:31:55.252Z,4.87
2018-01-28T20:34:24.758Z,4.93
2018-01-28T20:36:54.321Z,5.83
2018-01-28T20:39:23.579Z,5.73
2018-01-28T20:41:53.074Z,4.70
2018-01-28T20:44:22.573Z,5.57
2018-01-28T20:46:52.018Z,4.73
2018-01-28T20:49:21.464Z,4.70
2018-01-28T20:51:50.939Z,10.60
2018-01-28T20:54:20.400Z,6.13
2018-01-28T20:56:49.904Z,6.13
2018-01-28T20:59:19.366Z,10.63
2018-01-28T21:01:48.818Z,7.13
2018-01-28T21:04:17.949Z,5.40
2018-01-28T21:06:47.393Z,6.93
2018-01-28T21:09:16.834Z,4.53
2018-01-28T21:11:46.362Z,4.03
2018-01-28T21:14:15.885Z,4.10
2018-01-28T21:16:45.353Z,3.40
2018-01-28T21:19:14.637Z,3.53
2018-01-28T21:21:44.104Z,5.20
2018-01-28T21:24:13.556Z,3.70
2018-01-28T21:26:42.993Z,3.60
2018-01-28T21:29:12.534Z,3.93
2018-01-28T21:31:42.033Z,3.80
2018-01-28T21:34:11.676Z,3.27
2018-01-28T21:36:41.136Z,3.40
2018-01-28T21:39:10.593Z,3.47
2018-01-28T21:41:40.037Z,3.37
2018-01-28T21:44:09.497Z,3.00
2018-01-28T21:46:39.109Z,2.47
2018-01-28T21:49:08.557Z,3.70
2018-01-28T21:51:38.030Z,7.93
2018-01-28T21:54:07.481Z,3.60
2018-01-28T21:56:36.928Z,2.90
2018-01-28T21:59:06.198Z,3.97
2018-01-28T22:01:35.740Z,3.10
2018-01-28T22:04:05.201Z,2.80
2018-01-28T22:06:34.656Z,3.27
2018-01-28T22:09:03.639Z,3.50
2018-01-28T22:11:33.086Z,3.17
2018-01-28T22:14:02.554Z,4.13
2018-01-28T22:16:31.828Z,2.80
2018-01-28T22:19:01.266Z,3.07
2018-01-28T22:21:30.750Z,4.03
2018-01-28T22:24:00.257Z,3.83
2018-01-28T22:26:29.386Z,3.40
2018-01-28T22:28:58.833Z,3.20
2018-01-28T22:31:28.287Z,4.50
2018-01-28T22:33:57.569Z,3.43
2018-01-28T22:36:27.035Z,5.80
2018-01-28T22:38:56.489Z,2.93
2018-01-28T22:41:25.925Z,2.57
2018-01-28T22:43:55.418Z,3.57
2018-01-28T22:46:24.914Z,3.07
2018-01-28T22:48:54.047Z,2.80
2018-01-28T22:51:23.474Z,2.90
2018-01-28T22:53:52.940Z,3.43
2018-01-28T22:56:22.377Z,2.87
2018-01-28T22:58:51.823Z,3.60
2018-01-28T23:01:21.065Z,4.03
2018-01-28T23:03:50.554Z,3.30
2018-01-28T23:06:19.993Z,3.47
2018-01-28T23:08:49.425Z,3.73
2018-01-28T23:11:18.869Z,3.67
2018-01-28T23:13:48.455Z,3.70
2018-01-28T23:16:17.909Z,3.70
2018-01-28T23:18:47.325Z,3.33
2018-01-28T23:21:16.771Z,3.37
2018-01-28T23:23:46.213Z,3.10
2018-01-28T23:26:15.781Z,3.80
2018-01-28T23:28:45.207Z,3.43
2018-01-28T23:31:14.672Z,3.27
2018-01-28T23:33:44.132Z,3.33
2018-01-28T23:36:13.587Z,3.87
2018-01-28T23:38:43.014Z,3.27
2018-01-28T23:41:12.473Z,3.47
2018-01-28T23:43:41.917Z,3.40
2018-01-28T23:46:11.441Z,3.70
2018-01-28T23:48:40.869Z,2.87
2018-01-28T23:51:10.409Z,3.20
2018-01-28T23:53:39.843Z,3.20
2018-01-28T23:56:09.294Z,4.10
2018-01-28T23:58:38.754Z,3.73
